createdAt,value
2022-11-28T00:00:33.313Z,100.00
2022-11-28T00:03:36.630Z,100.00
2022-11-28T00:06:42.947Z,100.00
2022-11-28T00:09:45.543Z,100.00
2022-11-28T00:12:49.232Z,100.00
2022-11-28T00:16:02.142Z,100.00
2022-11-28T00:19:06.962Z,100.00
2022-11-28T00:22:10.482Z,100.00
2022-11-28T00:25:14.804Z,100.00
2022-11-28T00:28:17.478Z,100.00
2022-11-28T00:31:22.102Z,100.00
2022-11-28T00:34:25.818Z,100.00
2022-11-28T00:37:29.722Z,100.00
2022-11-28T00:40:33.547Z,100.00
2022-11-28T00:43:36.830Z,100.00
2022-11-28T00:46:39.922Z,100.00
2022-11-28T00:49:45.897Z,100.00
2022-11-28T00:52:49.901Z,100.00
2022-11-28T00:55:52.363Z,100.00
2022-11-28T00:58:55.063Z,100.00
2022-11-28T01:02:00.636Z,100.00
2022-11-28T01:05:03.032Z,100.00
2022-11-28T01:08:07.531Z,100.00
2022-11-28T01:11:13.649Z,100.00
2022-11-28T01:14:16.511Z,100.00
2022-11-28T01:17:19.433Z,100.00
2022-11-28T01:20:21.808Z,100.00
2022-11-28T01:23:24.890Z,100.00
2022-11-28T01:26:29.837Z,100.00
2022-11-28T01:29:32.156Z,100.00
2022-11-28T01:32:35.592Z,100.00
2022-11-28T01:35:38.887Z,100.00
2022-11-28T01:38:43.517Z,100.00
2022-11-28T01:41:46.022Z,100.00
2022-11-28T01:44:55.995Z,100.00
2022-11-28T01:48:02.586Z,100.00
2022-11-28T01:51:08.654Z,100.00
2022-11-28T01:54:11.883Z,100.00
2022-11-28T01:57:19.301Z,100.00
2022-11-28T02:00:23.351Z,100.00
2022-11-28T02:03:29.437Z,100.00
2022-11-28T02:06:32.993Z,100.00
2022-11-28T02:09:36.028Z,100.00
2022-11-28T02:12:51.303Z,100.00
2022-11-28T02:16:10.586Z,100.00
2022-11-28T02:19:29.630Z,100.00
2022-11-28T02:22:47.492Z,100.00
2022-11-28T02:26:11.046Z,100.00
2022-11-28T02:29:43.640Z,100.00
2022-11-28T02:32:48.058Z,100.00
2022-11-28T02:36:17.269Z,100.00
2022-11-28T02:39:41.032Z,100.00
2022-11-28T02:43:04.090Z,100.00
2022-11-28T02:46:09.845Z,100.00
2022-11-28T02:49:18.994Z,100.00
2022-11-28T02:52:26.059Z,100.00
2022-11-28T02:55:29.881Z,100.00
2022-11-28T02:58:33.902Z,100.00
2022-11-28T03:01:38.751Z,100.00
2022-11-28T03:05:08.048Z,100.00
2022-11-28T03:08:13.679Z,100.00
2022-11-28T03:11:20.788Z,100.00
2022-11-28T03:14:36.927Z,100.00
2022-11-28T03:18:15.163Z,100.00
2022-11-28T03:21:36.787Z,100.00
2022-11-28T03:24:45.015Z,100.00
2022-11-28T03:27:52.209Z,100.00
2022-11-28T03:30:54.980Z,100.00
2022-11-28T03:34:00.277Z,100.00
2022-11-28T03:37:11.366Z,100.00
2022-11-28T03:40:16.331Z,100.00
2022-11-28T03:43:21.190Z,100.00
2022-11-28T03:46:26.572Z,100.00
2022-11-28T03:49:42.991Z,100.00
2022-11-28T03:52:51.523Z,100.00
2022-11-28T03:56:12.508Z,100.00
2022-11-28T03:59:38.950Z,100.00
2022-11-28T04:02:52.785Z,100.00
2022-11-28T04:06:03.280Z,100.00
2022-11-28T04:09:15.272Z,100.00
2022-11-28T04:12:25.130Z,100.00
2022-11-28T04:15:47.152Z,100.00
2022-11-28T04:18:49.718Z,100.00
2022-11-28T04:22:00.573Z,100.00
2022-11-28T04:25:09.248Z,100.00
2022-11-28T04:28:14.374Z,100.00
2022-11-28T04:31:23.269Z,100.00
2022-11-28T04:34:27.519Z,100.00
2022-11-28T04:37:31.635Z,100.00
2022-11-28T04:40:39.085Z,100.00
2022-11-28T04:43:44.485Z,100.00
2022-11-28T04:46:51.800Z,100.00
2022-11-28T04:49:59.154Z,100.00
2022-11-28T04:53:06.566Z,100.00
2022-11-28T04:56:14.982Z,100.00
2022-11-28T04:59:18.256Z,100.00
2022-11-28T05:02:22.919Z,100.00
2022-11-28T05:05:29.052Z,100.00
2022-11-28T05:08:31.976Z,100.00
2022-11-28T05:11:34.278Z,100.00
2022-11-28T05:14:36.762Z,100.00
2022-11-28T05:17:42.387Z,100.00
2022-11-28T05:20:46.184Z,100.00
2022-11-28T05:23:51.286Z,100.00
2022-11-28T05:26:53.664Z,100.00
2022-11-28T05:29:56.871Z,100.00
2022-11-28T05:33:01.333Z,100.00
2022-11-28T05:36:12.640Z,100.00
2022-11-28T05:39:17.043Z,100.00
2022-11-28T05:42:20.347Z,100.00
2022-11-28T05:45:23.709Z,100.00
2022-11-28T05:48:26.454Z,100.00
2022-11-28T05:51:29.522Z,100.00
2022-11-28T05:54:32.919Z,100.00
2022-11-28T05:57:36.104Z,100.00
2022-11-28T06:00:39.428Z,100.00
2022-11-28T06:03:43.754Z,100.00
2022-11-28T06:06:47.333Z,100.00
2022-11-28T06:09:52.490Z,100.00
2022-11-28T06:12:56.201Z,100.00
2022-11-28T06:15:59.316Z,100.00
2022-11-28T06:19:04.017Z,100.00
2022-11-28T06:22:09.975Z,100.00
2022-11-28T06:25:13.163Z,100.00
2022-11-28T06:28:16.666Z,100.00
2022-11-28T06:31:20.155Z,100.00
2022-11-28T06:34:30.224Z,100.00
2022-11-28T06:37:34.240Z,100.00
2022-11-28T06:40:40.447Z,100.00
2022-11-28T06:43:43.623Z,100.00
2022-11-28T06:46:50.194Z,100.00
2022-11-28T06:49:53.767Z,100.00
2022-11-28T06:52:57.494Z,100.00
2022-11-28T06:56:10.104Z,100.00
2022-11-28T06:59:14.428Z,100.00
2022-11-28T07:02:18.238Z,100.00
2022-11-28T07:05:23.658Z,100.00
2022-11-28T07:21:52.682Z,100.00
2022-11-28T07:24:57.878Z,100.00
2022-11-28T07:28:03.925Z,100.00
2022-11-28T07:31:11.799Z,100.00
2022-11-28T07:41:28.396Z,100.00
2022-11-28T07:44:31.298Z,100.00
2022-11-28T07:47:37.652Z,100.00
2022-11-28T07:50:40.496Z,100.00
2022-11-28T07:53:44.237Z,100.00
2022-11-28T08:00:11.294Z,100.00
2022-11-28T08:03:14.911Z,100.00
2022-11-28T08:06:19.432Z,100.00
2022-11-28T08:09:26.296Z,100.00
2022-11-28T08:12:30.846Z,100.00
2022-11-28T08:15:34.434Z,100.00
2022-11-28T08:18:38.648Z,100.00
2022-11-28T08:21:42.417Z,100.00
2022-11-28T08:24:46.268Z,100.00
2022-11-28T08:27:51.520Z,100.00
2022-11-28T08:30:55.257Z,100.00
2022-11-28T08:33:59.849Z,100.00
2022-11-28T09:02:58.512Z,95.58
2022-11-28T09:06:03.243Z,92.08
2022-11-28T09:09:07.145Z,95.64
2022-11-28T09:12:10.022Z,93.06
2022-11-28T09:15:12.595Z,94.70
2022-11-28T09:18:16.919Z,94.40
2022-11-28T09:21:19.651Z,94.22
2022-11-28T09:24:22.828Z,95.22
2022-11-28T09:27:25.511Z,98.58
2022-11-28T09:30:29.389Z,98.46
2022-11-28T09:33:33.199Z,98.78
2022-11-28T09:36:39.210Z,100.00
2022-11-28T09:40:11.550Z,100.00
2022-11-28T09:43:20.009Z,99.13
2022-11-28T09:46:29.724Z,96.54
2022-11-28T09:49:47.233Z,96.65
2022-11-28T09:53:00.650Z,97.30
2022-11-28T09:56:09.680Z,97.35
2022-11-28T09:59:18.452Z,95.24
2022-11-28T10:02:30.913Z,95.52
2022-11-28T10:05:57.336Z,95.70
2022-11-28T10:09:05.683Z,94.64
2022-11-28T10:12:33.117Z,95.70
2022-11-28T10:15:44.880Z,95.04
2022-11-28T10:19:52.287Z,95.66
2022-11-28T10:22:58.475Z,92.13
2022-11-28T10:26:06.392Z,93.17
2022-11-28T10:29:19.877Z,90.67
2022-11-28T10:32:28.312Z,90.99
2022-11-28T10:35:34.828Z,91.90
2022-11-28T10:38:39.386Z,90.18
2022-11-28T10:42:10.797Z,91.44
2022-11-28T10:45:17.060Z,90.84
2022-11-28T10:48:39.637Z,91.13
2022-11-28T10:52:04.102Z,91.69
2022-11-28T10:55:11.705Z,90.41
2022-11-28T10:58:26.809Z,92.74
2022-11-28T11:01:47.360Z,92.18
2022-11-28T11:08:51.374Z,88.51
2022-11-28T11:12:03.100Z,91.42
2022-11-28T11:15:46.774Z,91.75
2022-11-28T11:18:49.153Z,94.64
2022-11-28T11:22:02.452Z,94.78
2022-11-28T11:25:07.793Z,96.12
2022-11-28T11:34:53.467Z,94.68
2022-11-28T11:38:18.523Z,96.40
2022-11-28T11:41:30.637Z,97.01
2022-11-28T11:44:36.482Z,97.12
2022-11-28T11:47:45.604Z,97.33
2022-11-28T11:50:58.543Z,99.82
2022-11-28T11:54:05.376Z,95.32
2022-11-28T12:00:44.567Z,97.88
2022-11-28T12:04:17.720Z,96.89
2022-11-28T12:10:38.287Z,91.59
2022-11-28T12:13:41.592Z,92.82
2022-11-28T12:16:53.907Z,93.04
2022-11-28T12:20:05.234Z,93.12
2022-11-28T12:39:57.451Z,92.13
2022-11-28T12:43:09.308Z,93.01
2022-11-28T12:46:23.199Z,94.73
2022-11-28T12:49:40.704Z,90.61
2022-11-28T12:52:58.257Z,90.99
2022-11-28T12:56:07.564Z,91.74
2022-11-28T12:59:23.660Z,91.36
2022-11-28T13:02:30.744Z,92.48
2022-11-28T13:05:58.611Z,94.14
2022-11-28T13:09:19.880Z,93.14
2022-11-28T13:12:33.322Z,94.64
2022-11-28T13:15:35.595Z,93.80
2022-11-28T13:18:44.723Z,96.34
2022-11-28T13:21:56.604Z,96.17
2022-11-28T13:25:13.217Z,97.97
2022-11-28T13:28:24.852Z,99.02
2022-11-28T13:31:47.233Z,99.16
2022-11-28T13:34:51.318Z,98.91
2022-11-28T13:42:01.226Z,98.81
2022-11-28T13:44:53.869Z,100.00
2022-11-28T13:47:58.446Z,99.69
2022-11-28T13:51:23.980Z,97.66
2022-11-28T13:54:32.591Z,100.00
2022-11-28T13:57:44.981Z,98.16
2022-11-28T14:01:14.077Z,99.53
2022-11-28T14:04:20.537Z,98.33
2022-11-28T14:07:36.653Z,99.71
2022-11-28T14:11:05.649Z,99.96
2022-11-28T14:14:27.289Z,100.00
2022-11-28T14:17:44.901Z,100.00
2022-11-28T14:20:59.501Z,100.00
2022-11-28T14:24:06.685Z,100.00
2022-11-28T14:27:18.483Z,100.00
2022-11-28T14:30:26.800Z,100.00
2022-11-28T14:33:39.897Z,100.00
2022-11-28T14:36:44.603Z,100.00
2022-11-28T14:39:48.143Z,100.00
2022-11-28T14:43:13.114Z,100.00
2022-11-28T14:46:22.576Z,100.00
2022-11-28T14:49:37.323Z,100.00
2022-11-28T14:52:42.145Z,100.00
2022-11-28T14:55:49.789Z,100.00
2022-11-28T14:59:05.173Z,100.00
2022-11-28T15:02:16.070Z,100.00
2022-11-28T15:05:29.555Z,100.00
2022-11-28T15:08:42.070Z,100.00
2022-11-28T15:12:03.495Z,100.00
2022-11-28T15:15:08.383Z,100.00
2022-11-28T15:18:13.270Z,100.00
2022-11-28T15:21:17.687Z,100.00
2022-11-28T15:24:35.147Z,100.00
2022-11-28T15:27:42.327Z,100.00
2022-11-28T15:30:49.692Z,100.00
2022-11-28T15:33:55.949Z,100.00
2022-11-28T15:37:02.053Z,100.00
2022-11-28T15:40:07.897Z,100.00
2022-11-28T15:43:14.248Z,100.00
2022-11-28T15:46:25.340Z,100.00
2022-11-28T15:49:33.985Z,100.00
2022-11-28T15:52:36.629Z,100.00
2022-11-28T15:55:40.218Z,100.00
2022-11-28T15:58:44.937Z,100.00
2022-11-28T16:01:48.145Z,100.00
2022-11-28T16:04:54.982Z,100.00
2022-11-28T16:07:59.017Z,100.00
2022-11-28T16:11:04.680Z,100.00
2022-11-28T16:14:12.559Z,100.00
2022-11-28T16:17:26.666Z,100.00
2022-11-28T16:20:40.475Z,100.00
2022-11-28T16:23:45.613Z,100.00
2022-11-28T16:26:57.073Z,100.00
2022-11-28T16:30:01.545Z,100.00
2022-11-28T16:33:26.005Z,100.00
2022-11-28T16:36:36.090Z,100.00
2022-11-28T16:39:44.471Z,100.00
2022-11-28T16:42:54.869Z,100.00
2022-11-28T16:46:00.958Z,100.00
2022-11-28T16:49:09.959Z,100.00
2022-11-28T16:52:22.706Z,100.00
2022-11-28T16:55:37.180Z,100.00
2022-11-28T16:58:40.937Z,100.00
2022-11-28T17:01:53.894Z,100.00
2022-11-28T17:04:58.675Z,100.00
2022-11-28T17:08:04.455Z,100.00
2022-11-28T17:11:08.135Z,100.00
2022-11-28T17:14:13.931Z,100.00
2022-11-28T17:17:22.700Z,100.00
2022-11-28T17:20:31.344Z,100.00
2022-11-28T17:23:35.256Z,100.00
2022-11-28T17:26:38.858Z,100.00
2022-11-28T17:29:44.695Z,100.00
2022-11-28T17:32:49.166Z,100.00
2022-11-28T17:35:54.875Z,100.00
2022-11-28T17:39:05.080Z,100.00
2022-11-28T17:42:09.056Z,100.00
2022-11-28T17:45:16.743Z,100.00
2022-11-28T17:48:19.846Z,100.00
2022-11-28T17:51:22.721Z,100.00
2022-11-28T17:54:27.359Z,100.00
2022-11-28T17:57:31.525Z,100.00
2022-11-28T18:00:35.886Z,100.00
2022-11-28T18:03:38.872Z,100.00
2022-11-28T18:06:45.966Z,100.00
2022-11-28T18:09:48.754Z,100.00
2022-11-28T18:12:52.549Z,100.00
2022-11-28T18:15:56.166Z,100.00
2022-11-28T18:18:59.654Z,100.00
2022-11-28T18:22:03.360Z,100.00
2022-11-28T18:25:08.419Z,100.00
2022-11-28T18:28:18.446Z,100.00
2022-11-28T18:31:26.501Z,100.00
2022-11-28T18:34:32.809Z,100.00
2022-11-28T18:37:36.225Z,100.00
2022-11-28T18:40:39.941Z,100.00
2022-11-28T18:43:44.157Z,100.00
2022-11-28T18:46:47.229Z,100.00
2022-11-28T18:49:50.122Z,100.00
2022-11-28T18:52:53.031Z,100.00
2022-11-28T18:56:04.597Z,100.00
